sensor_id;sensor_type;location;lat;lon;timestamp;temperature;humidity
13203;DHT22;6666;51.626;7.530;2024-03-02T00:00:50;7.50;99.90
13203;DHT22;6666;51.626;7.530;2024-03-02T00:03:19;7.50;99.90
13203;DHT22;6666;51.626;7.530;2024-03-02T00:05:52;7.50;99.90
13203;DHT22;6666;51.626;7.530;2024-03-02T00:08:23;7.50;99.90
13203;DHT22;6666;51.626;7.530;2024-03-02T00:10:57;7.60;99.90
13203;DHT22;6666;51.626;7.530;2024-03-02T00:13:26;7.60;99.90
13203;DHT22;6666;51.626;7.530;2024-03-02T00:15:55;7.60;99.90
13203;DHT22;6666;51.626;7.530;2024-03-02T00:18:26;7.40;99.90
13203;DHT22;6666;51.626;7.530;2024-03-02T00:20:57;7.50;99.90
13203;DHT22;6666;51.626;7.530;2024-03-02T00:23:29;7.50;99.90
13203;DHT22;6666;51.626;7.530;2024-03-02T00:25:58;7.50;99.90
13203;DHT22;6666;51.626;7.530;2024-03-02T00:28:27;7.60;99.90
13203;DHT22;6666;51.626;7.530;2024-03-02T00:30:58;7.60;99.90
13203;DHT22;6666;51.626;7.530;2024-03-02T00:33:28;7.60;99.90
13203;DHT22;6666;51.626;7.530;2024-03-02T00:35:59;7.60;99.90
13203;DHT22;6666;51.626;7.530;2024-03-02T00:38:27;7.60;99.90
13203;DHT22;6666;51.626;7.530;2024-03-02T00:40:58;7.60;99.90
13203;DHT22;6666;51.626;7.530;2024-03-02T00:43:43;7.60;99.90
13203;DHT22;6666;51.626;7.530;2024-03-02T00:46:16;7.60;99.90
13203;DHT22;6666;51.626;7.530;2024-03-02T00:48:51;7.50;99.90
13203;DHT22;6666;51.626;7.530;2024-03-02T00:51:23;7.60;99.90
13203;DHT22;6666;51.626;7.530;2024-03-02T00:53:53;7.60;99.90
13203;DHT22;6666;51.626;7.530;2024-03-02T00:56:24;7.60;99.90
13203;DHT22;6666;51.626;7.530;2024-03-02T00:58:53;7.70;99.90
13203;DHT22;6666;51.626;7.530;2024-03-02T01:01:21;7.80;99.90
13203;DHT22;6666;51.626;7.530;2024-03-02T01:03:50;7.80;99.90
13203;DHT22;6666;51.626;7.530;2024-03-02T01:06:18;7.80;99.90
13203;DHT22;6666;51.626;7.530;2024-03-02T01:08:48;7.90;99.90
13203;DHT22;6666;51.626;7.530;2024-03-02T01:11:19;7.80;99.90
13203;DHT22;6666;51.626;7.530;2024-03-02T01:13:50;7.80;99.90
13203;DHT22;6666;51.626;7.530;2024-03-02T01:16:19;7.90;99.90
13203;DHT22;6666;51.626;7.530;2024-03-02T01:18:47;7.90;99.90
13203;DHT22;6666;51.626;7.530;2024-03-02T01:21:15;7.90;99.90
13203;DHT22;6666;51.626;7.530;2024-03-02T01:23:43;7.90;99.90
13203;DHT22;6666;51.626;7.530;2024-03-02T01:26:13;7.90;99.90
13203;DHT22;6666;51.626;7.530;2024-03-02T01:28:41;7.90;99.90
13203;DHT22;6666;51.626;7.530;2024-03-02T01:31:09;7.90;99.90
13203;DHT22;6666;51.626;7.530;2024-03-02T01:33:38;7.90;99.90
13203;DHT22;6666;51.626;7.530;2024-03-02T01:36:06;7.90;99.90
13203;DHT22;6666;51.626;7.530;2024-03-02T01:38:35;8.00;99.90
13203;DHT22;6666;51.626;7.530;2024-03-02T01:41:03;8.10;99.90
13203;DHT22;6666;51.626;7.530;2024-03-02T01:43:33;8.10;99.90
13203;DHT22;6666;51.626;7.530;2024-03-02T01:46:04;8.10;99.90
13203;DHT22;6666;51.626;7.530;2024-03-02T01:48:32;8.10;99.90
13203;DHT22;6666;51.626;7.530;2024-03-02T01:51:01;8.00;99.90
13203;DHT22;6666;51.626;7.530;2024-03-02T01:53:29;8.10;99.90
13203;DHT22;6666;51.626;7.530;2024-03-02T01:55:57;8.10;99.90
13203;DHT22;6666;51.626;7.530;2024-03-02T01:58:25;8.20;99.90
13203;DHT22;6666;51.626;7.530;2024-03-02T02:00:55;8.10;99.90
13203;DHT22;6666;51.626;7.530;2024-03-02T02:03:23;8.10;99.90
13203;DHT22;6666;51.626;7.530;2024-03-02T02:05:51;8.00;99.90
13203;DHT22;6666;51.626;7.530;2024-03-02T02:08:19;8.10;99.90
13203;DHT22;6666;51.626;7.530;2024-03-02T02:10:47;8.00;99.90
13203;DHT22;6666;51.626;7.530;2024-03-02T02:13:16;8.00;99.90
13203;DHT22;6666;51.626;7.530;2024-03-02T02:15:44;8.00;99.90
13203;DHT22;6666;51.626;7.530;2024-03-02T02:18:13;8.00;99.90
13203;DHT22;6666;51.626;7.530;2024-03-02T02:20:42;8.00;99.90
13203;DHT22;6666;51.626;7.530;2024-03-02T02:23:11;7.90;99.90
13203;DHT22;6666;51.626;7.530;2024-03-02T02:25:40;7.90;99.90
13203;DHT22;6666;51.626;7.530;2024-03-02T02:28:08;7.90;99.90
13203;DHT22;6666;51.626;7.530;2024-03-02T02:30:36;7.90;99.90
13203;DHT22;6666;51.626;7.530;2024-03-02T02:33:05;7.80;99.90
13203;DHT22;6666;51.626;7.530;2024-03-02T02:35:33;7.90;99.90
13203;DHT22;6666;51.626;7.530;2024-03-02T02:38:02;7.80;99.90
13203;DHT22;6666;51.626;7.530;2024-03-02T02:40:32;7.80;99.90
13203;DHT22;6666;51.626;7.530;2024-03-02T02:43:00;7.80;99.90
13203;DHT22;6666;51.626;7.530;2024-03-02T02:45:28;7.80;99.90
13203;DHT22;6666;51.626;7.530;2024-03-02T02:47:57;7.70;99.90
13203;DHT22;6666;51.626;7.530;2024-03-02T02:50:28;7.70;99.90
13203;DHT22;6666;51.626;7.530;2024-03-02T02:52:56;7.70;99.90
13203;DHT22;6666;51.626;7.530;2024-03-02T02:55:24;7.70;99.90
13203;DHT22;6666;51.626;7.530;2024-03-02T02:57:53;7.70;99.90
13203;DHT22;6666;51.626;7.530;2024-03-02T03:00:21;7.60;99.90
13203;DHT22;6666;51.626;7.530;2024-03-02T03:02:50;7.50;99.90
13203;DHT22;6666;51.626;7.530;2024-03-02T03:05:18;7.60;99.90
13203;DHT22;6666;51.626;7.530;2024-03-02T03:07:46;7.50;99.90
13203;DHT22;6666;51.626;7.530;2024-03-02T03:10:17;7.60;99.90
13203;DHT22;6666;51.626;7.530;2024-03-02T03:12:45;7.70;99.90
13203;DHT22;6666;51.626;7.530;2024-03-02T03:15:15;7.90;99.90
13203;DHT22;6666;51.626;7.530;2024-03-02T03:17:44;8.00;99.90
13203;DHT22;6666;51.626;7.530;2024-03-02T03:20:14;8.10;99.90
13203;DHT22;6666;51.626;7.530;2024-03-02T03:22:42;8.10;99.90
13203;DHT22;6666;51.626;7.530;2024-03-02T03:25:10;8.20;99.90
13203;DHT22;6666;51.626;7.530;2024-03-02T03:27:39;8.20;99.90
13203;DHT22;6666;51.626;7.530;2024-03-02T03:30:09;8.20;99.90
13203;DHT22;6666;51.626;7.530;2024-03-02T03:32:39;8.10;99.90
13203;DHT22;6666;51.626;7.530;2024-03-02T03:35:08;8.00;99.90
13203;DHT22;6666;51.626;7.530;2024-03-02T03:37:37;7.90;99.90
13203;DHT22;6666;51.626;7.530;2024-03-02T03:40:06;7.80;99.90
13203;DHT22;6666;51.626;7.530;2024-03-02T03:42:37;7.90;99.90
13203;DHT22;6666;51.626;7.530;2024-03-02T03:45:07;7.80;99.90
13203;DHT22;6666;51.626;7.530;2024-03-02T03:47:35;7.80;99.90
13203;DHT22;6666;51.626;7.530;2024-03-02T03:50:06;7.70;99.90
13203;DHT22;6666;51.626;7.530;2024-03-02T03:52:35;7.70;99.90
13203;DHT22;6666;51.626;7.530;2024-03-02T03:55:04;7.60;99.90
13203;DHT22;6666;51.626;7.530;2024-03-02T03:57:33;7.60;99.90
13203;DHT22;6666;51.626;7.530;2024-03-02T04:00:01;7.50;99.90
13203;DHT22;6666;51.626;7.530;2024-03-02T04:02:37;7.50;99.90
13203;DHT22;6666;51.626;7.530;2024-03-02T04:05:08;7.60;99.90
13203;DHT22;6666;51.626;7.530;2024-03-02T04:07:38;7.60;99.90
13203;DHT22;6666;51.626;7.530;2024-03-02T04:10:08;7.60;99.90
13203;DHT22;6666;51.626;7.530;2024-03-02T04:12:37;7.70;99.90
13203;DHT22;6666;51.626;7.530;2024-03-02T04:15:06;7.70;99.90
13203;DHT22;6666;51.626;7.530;2024-03-02T04:17:34;7.70;99.90
13203;DHT22;6666;51.626;7.530;2024-03-02T04:20:03;7.70;99.90
13203;DHT22;6666;51.626;7.530;2024-03-02T04:22:34;7.70;99.90
13203;DHT22;6666;51.626;7.530;2024-03-02T04:25:03;7.90;99.90
13203;DHT22;6666;51.626;7.530;2024-03-02T04:27:35;7.90;99.90
13203;DHT22;6666;51.626;7.530;2024-03-02T04:30:05;7.90;99.90
13203;DHT22;6666;51.626;7.530;2024-03-02T04:32:33;8.00;99.90
13203;DHT22;6666;51.626;7.530;2024-03-02T04:35:03;7.90;99.90
13203;DHT22;6666;51.626;7.530;2024-03-02T04:37:34;7.80;99.90
13203;DHT22;6666;51.626;7.530;2024-03-02T04:40:02;7.80;99.90
13203;DHT22;6666;51.626;7.530;2024-03-02T04:42:30;7.70;99.90
13203;DHT22;6666;51.626;7.530;2024-03-02T04:44:59;7.70;99.90
13203;DHT22;6666;51.626;7.530;2024-03-02T04:47:28;7.60;99.90
13203;DHT22;6666;51.626;7.530;2024-03-02T04:49:56;7.60;99.90
13203;DHT22;6666;51.626;7.530;2024-03-02T04:52:24;7.50;99.90
13203;DHT22;6666;51.626;7.530;2024-03-02T04:54:53;7.50;99.90
13203;DHT22;6666;51.626;7.530;2024-03-02T04:57:35;7.50;99.90
13203;DHT22;6666;51.626;7.530;2024-03-02T05:00:05;7.50;99.90
13203;DHT22;6666;51.626;7.530;2024-03-02T05:02:35;7.50;99.90
13203;DHT22;6666;51.626;7.530;2024-03-02T05:05:04;7.50;99.90
13203;DHT22;6666;51.626;7.530;2024-03-02T05:07:32;7.50;99.90
13203;DHT22;6666;51.626;7.530;2024-03-02T05:10:01;7.50;99.90
13203;DHT22;6666;51.626;7.530;2024-03-02T05:12:29;7.50;99.90
13203;DHT22;6666;51.626;7.530;2024-03-02T05:15:22;7.40;99.90
13203;DHT22;6666;51.626;7.530;2024-03-02T05:17:50;7.40;99.90
13203;DHT22;6666;51.626;7.530;2024-03-02T05:20:20;7.40;99.90
13203;DHT22;6666;51.626;7.530;2024-03-02T05:22:48;7.30;99.90
13203;DHT22;6666;51.626;7.530;2024-03-02T05:25:17;7.30;99.90
13203;DHT22;6666;51.626;7.530;2024-03-02T05:27:46;7.40;99.90
13203;DHT22;6666;51.626;7.530;2024-03-02T05:30:15;7.30;99.90
13203;DHT22;6666;51.626;7.530;2024-03-02T05:32:43;7.20;99.90
13203;DHT22;6666;51.626;7.530;2024-03-02T05:35:11;7.10;99.90
13203;DHT22;6666;51.626;7.530;2024-03-02T05:37:39;7.00;99.90
13203;DHT22;6666;51.626;7.530;2024-03-02T05:40:08;7.00;99.90
13203;DHT22;6666;51.626;7.530;2024-03-02T05:42:39;7.00;99.90
13203;DHT22;6666;51.626;7.530;2024-03-02T05:45:08;7.00;99.90
13203;DHT22;6666;51.626;7.530;2024-03-02T05:47:36;7.00;99.90
13203;DHT22;6666;51.626;7.530;2024-03-02T05:50:06;6.90;99.90
13203;DHT22;6666;51.626;7.530;2024-03-02T05:52:34;7.00;99.90
13203;DHT22;6666;51.626;7.530;2024-03-02T05:55:03;7.00;99.90
13203;DHT22;6666;51.626;7.530;2024-03-02T05:57:31;6.90;99.90
13203;DHT22;6666;51.626;7.530;2024-03-02T06:00:16;6.90;99.90
13203;DHT22;6666;51.626;7.530;2024-03-02T06:02:45;6.80;99.90
13203;DHT22;6666;51.626;7.530;2024-03-02T06:05:13;6.80;99.90
13203;DHT22;6666;51.626;7.530;2024-03-02T06:07:41;6.80;99.90
13203;DHT22;6666;51.626;7.530;2024-03-02T06:10:10;6.70;99.90
13203;DHT22;6666;51.626;7.530;2024-03-02T06:12:40;6.70;99.90
13203;DHT22;6666;51.626;7.530;2024-03-02T06:15:09;6.80;99.90
13203;DHT22;6666;51.626;7.530;2024-03-02T06:17:38;6.90;99.90
13203;DHT22;6666;51.626;7.530;2024-03-02T06:20:07;6.80;99.90
13203;DHT22;6666;51.626;7.530;2024-03-02T06:22:36;6.80;99.90
13203;DHT22;6666;51.626;7.530;2024-03-02T06:25:04;6.80;99.90
13203;DHT22;6666;51.626;7.530;2024-03-02T06:27:33;7.00;99.90
13203;DHT22;6666;51.626;7.530;2024-03-02T06:30:01;7.00;99.90
13203;DHT22;6666;51.626;7.530;2024-03-02T06:32:31;7.20;99.90
13203;DHT22;6666;51.626;7.530;2024-03-02T06:35:00;7.20;99.90
13203;DHT22;6666;51.626;7.530;2024-03-02T06:37:28;7.30;99.90
13203;DHT22;6666;51.626;7.530;2024-03-02T06:39:56;7.20;99.90
13203;DHT22;6666;51.626;7.530;2024-03-02T06:42:25;7.30;99.90
13203;DHT22;6666;51.626;7.530;2024-03-02T06:44:53;7.30;99.90
13203;DHT22;6666;51.626;7.530;2024-03-02T06:47:21;7.20;99.90
13203;DHT22;6666;51.626;7.530;2024-03-02T06:49:49;7.30;99.90
13203;DHT22;6666;51.626;7.530;2024-03-02T06:52:19;7.20;99.90
13203;DHT22;6666;51.626;7.530;2024-03-02T06:54:50;7.20;99.90
13203;DHT22;6666;51.626;7.530;2024-03-02T06:57:19;7.20;99.90
13203;DHT22;6666;51.626;7.530;2024-03-02T06:59:48;7.20;99.90
13203;DHT22;6666;51.626;7.530;2024-03-02T07:02:17;7.30;99.90
13203;DHT22;6666;51.626;7.530;2024-03-02T07:04:45;7.30;99.90
13203;DHT22;6666;51.626;7.530;2024-03-02T07:07:13;7.20;99.90
13203;DHT22;6666;51.626;7.530;2024-03-02T07:09:43;7.30;99.90
13203;DHT22;6666;51.626;7.530;2024-03-02T07:12:11;7.30;99.90
13203;DHT22;6666;51.626;7.530;2024-03-02T07:14:39;7.30;99.90
13203;DHT22;6666;51.626;7.530;2024-03-02T07:17:31;7.30;99.90
13203;DHT22;6666;51.626;7.530;2024-03-02T07:19:59;7.30;99.90
13203;DHT22;6666;51.626;7.530;2024-03-02T07:22:27;7.30;99.90
13203;DHT22;6666;51.626;7.530;2024-03-02T07:25:21;7.20;99.90
13203;DHT22;6666;51.626;7.530;2024-03-02T07:27:52;7.30;99.90
13203;DHT22;6666;51.626;7.530;2024-03-02T07:30:20;7.40;99.90
13203;DHT22;6666;51.626;7.530;2024-03-02T07:32:50;7.50;99.90
13203;DHT22;6666;51.626;7.530;2024-03-02T07:35:18;7.60;99.90
13203;DHT22;6666;51.626;7.530;2024-03-02T07:37:46;7.50;99.90
13203;DHT22;6666;51.626;7.530;2024-03-02T07:40:14;7.60;99.90
13203;DHT22;6666;51.626;7.530;2024-03-02T07:42:45;7.70;99.90
13203;DHT22;6666;51.626;7.530;2024-03-02T07:45:13;7.80;99.90
13203;DHT22;6666;51.626;7.530;2024-03-02T07:47:42;7.90;99.90
13203;DHT22;6666;51.626;7.530;2024-03-02T07:50:10;7.90;99.90
13203;DHT22;6666;51.626;7.530;2024-03-02T07:52:38;8.10;99.90
13203;DHT22;6666;51.626;7.530;2024-03-02T07:55:07;8.20;99.90
13203;DHT22;6666;51.626;7.530;2024-03-02T07:57:35;8.30;99.90
13203;DHT22;6666;51.626;7.530;2024-03-02T08:00:06;8.40;99.90
13203;DHT22;6666;51.626;7.530;2024-03-02T08:02:37;8.50;99.90
13203;DHT22;6666;51.626;7.530;2024-03-02T08:05:06;8.50;99.90
13203;DHT22;6666;51.626;7.530;2024-03-02T08:07:34;8.60;99.90
13203;DHT22;6666;51.626;7.530;2024-03-02T08:10:03;8.70;99.90
13203;DHT22;6666;51.626;7.530;2024-03-02T08:12:31;8.70;99.90
13203;DHT22;6666;51.626;7.530;2024-03-02T08:14:59;8.80;99.90
13203;DHT22;6666;51.626;7.530;2024-03-02T08:17:29;8.90;99.90
13203;DHT22;6666;51.626;7.530;2024-03-02T08:19:59;8.90;99.90
13203;DHT22;6666;51.626;7.530;2024-03-02T08:22:30;9.00;99.90
13203;DHT22;6666;51.626;7.530;2024-03-02T08:24:58;9.00;99.90
13203;DHT22;6666;51.626;7.530;2024-03-02T08:27:27;9.10;99.90
13203;DHT22;6666;51.626;7.530;2024-03-02T08:29:55;9.20;99.90
13203;DHT22;6666;51.626;7.530;2024-03-02T08:32:23;9.10;99.90
13203;DHT22;6666;51.626;7.530;2024-03-02T08:34:52;9.20;99.90
13203;DHT22;6666;51.626;7.530;2024-03-02T08:37:21;9.30;99.90
13203;DHT22;6666;51.626;7.530;2024-03-02T08:39:49;9.30;99.90
13203;DHT22;6666;51.626;7.530;2024-03-02T08:42:17;9.40;99.90
13203;DHT22;6666;51.626;7.530;2024-03-02T08:44:46;9.50;99.90
13203;DHT22;6666;51.626;7.530;2024-03-02T08:47:14;9.50;99.90
13203;DHT22;6666;51.626;7.530;2024-03-02T08:49:43;9.60;99.90
13203;DHT22;6666;51.626;7.530;2024-03-02T08:52:12;9.60;99.90
13203;DHT22;6666;51.626;7.530;2024-03-02T08:54:40;9.70;99.90
13203;DHT22;6666;51.626;7.530;2024-03-02T08:57:09;9.80;99.90
13203;DHT22;6666;51.626;7.530;2024-03-02T08:59:37;9.80;99.90
13203;DHT22;6666;51.626;7.530;2024-03-02T09:02:05;9.50;99.90
13203;DHT22;6666;51.626;7.530;2024-03-02T09:04:33;9.70;99.90
13203;DHT22;6666;51.626;7.530;2024-03-02T09:07:02;9.90;99.90
13203;DHT22;6666;51.626;7.530;2024-03-02T09:09:32;10.00;99.90
13203;DHT22;6666;51.626;7.530;2024-03-02T09:12:00;10.00;99.90
13203;DHT22;6666;51.626;7.530;2024-03-02T09:14:28;10.10;99.90
13203;DHT22;6666;51.626;7.530;2024-03-02T09:16:56;10.20;99.90
13203;DHT22;6666;51.626;7.530;2024-03-02T09:19:25;9.50;99.90
13203;DHT22;6666;51.626;7.530;2024-03-02T09:21:53;9.20;99.90
13203;DHT22;6666;51.626;7.530;2024-03-02T09:24:22;9.10;99.90
13203;DHT22;6666;51.626;7.530;2024-03-02T09:26:52;9.20;99.90
13203;DHT22;6666;51.626;7.530;2024-03-02T09:29:21;9.30;99.90
13203;DHT22;6666;51.626;7.530;2024-03-02T09:31:49;9.30;99.90
13203;DHT22;6666;51.626;7.530;2024-03-02T09:34:17;9.40;99.90
13203;DHT22;6666;51.626;7.530;2024-03-02T09:36:46;9.50;99.90
13203;DHT22;6666;51.626;7.530;2024-03-02T09:39:14;9.60;99.90
13203;DHT22;6666;51.626;7.530;2024-03-02T09:41:42;9.70;99.90
13203;DHT22;6666;51.626;7.530;2024-03-02T09:44:12;9.70;99.90
13203;DHT22;6666;51.626;7.530;2024-03-02T09:46:40;9.80;99.90
13203;DHT22;6666;51.626;7.530;2024-03-02T09:49:11;9.90;99.90
13203;DHT22;6666;51.626;7.530;2024-03-02T09:51:40;10.10;99.90
13203;DHT22;6666;51.626;7.530;2024-03-02T09:54:11;10.00;99.90
13203;DHT22;6666;51.626;7.530;2024-03-02T09:56:49;10.20;99.90
13203;DHT22;6666;51.626;7.530;2024-03-02T09:59:19;10.60;99.90
13203;DHT22;6666;51.626;7.530;2024-03-02T10:01:58;10.80;99.90
13203;DHT22;6666;51.626;7.530;2024-03-02T10:04:28;10.80;99.90
13203;DHT22;6666;51.626;7.530;2024-03-02T10:07:10;11.00;99.90
13203;DHT22;6666;51.626;7.530;2024-03-02T10:09:39;11.00;99.90
13203;DHT22;6666;51.626;7.530;2024-03-02T10:12:09;11.00;99.90
13203;DHT22;6666;51.626;7.530;2024-03-02T10:14:41;11.10;99.90
13203;DHT22;6666;51.626;7.530;2024-03-02T10:17:11;11.20;99.90
13203;DHT22;6666;51.626;7.530;2024-03-02T10:19:40;11.30;99.90
13203;DHT22;6666;51.626;7.530;2024-03-02T10:22:09;11.30;99.90
13203;DHT22;6666;51.626;7.530;2024-03-02T10:24:38;11.30;99.90
13203;DHT22;6666;51.626;7.530;2024-03-02T10:27:08;11.40;99.90
13203;DHT22;6666;51.626;7.530;2024-03-02T10:29:37;11.50;99.90
13203;DHT22;6666;51.626;7.530;2024-03-02T10:32:10;10.80;99.90
13203;DHT22;6666;51.626;7.530;2024-03-02T10:34:40;11.00;99.90
13203;DHT22;6666;51.626;7.530;2024-03-02T10:37:10;11.10;99.90
13203;DHT22;6666;51.626;7.530;2024-03-02T10:39:39;11.20;99.90
13203;DHT22;6666;51.626;7.530;2024-03-02T10:42:09;11.30;99.90
13203;DHT22;6666;51.626;7.530;2024-03-02T10:44:37;11.30;99.90
13203;DHT22;6666;51.626;7.530;2024-03-02T10:47:10;11.30;99.90
13203;DHT22;6666;51.626;7.530;2024-03-02T10:49:42;11.40;99.90
13203;DHT22;6666;51.626;7.530;2024-03-02T10:52:10;11.60;99.90
13203;DHT22;6666;51.626;7.530;2024-03-02T10:54:38;11.60;99.90
13203;DHT22;6666;51.626;7.530;2024-03-02T10:57:08;11.70;99.90
13203;DHT22;6666;51.626;7.530;2024-03-02T10:59:44;11.70;99.90
13203;DHT22;6666;51.626;7.530;2024-03-02T11:02:16;11.80;99.90
13203;DHT22;6666;51.626;7.530;2024-03-02T11:04:47;11.70;99.90
13203;DHT22;6666;51.626;7.530;2024-03-02T11:07:18;11.90;99.90
13203;DHT22;6666;51.626;7.530;2024-03-02T11:09:54;11.90;99.90
13203;DHT22;6666;51.626;7.530;2024-03-02T11:12:29;11.90;99.90
13203;DHT22;6666;51.626;7.530;2024-03-02T11:14:58;12.00;99.90
13203;DHT22;6666;51.626;7.530;2024-03-02T11:17:30;12.00;99.90
13203;DHT22;6666;51.626;7.530;2024-03-02T11:19:58;12.10;99.90
13203;DHT22;6666;51.626;7.530;2024-03-02T11:22:28;12.30;99.90
13203;DHT22;6666;51.626;7.530;2024-03-02T11:24:56;12.40;99.90
13203;DHT22;6666;51.626;7.530;2024-03-02T11:30:49;12.40;99.90
13203;DHT22;6666;51.626;7.530;2024-03-02T11:33:26;12.50;99.90
13203;DHT22;6666;51.626;7.530;2024-03-02T11:35:58;12.50;99.90
13203;DHT22;6666;51.626;7.530;2024-03-02T11:38:31;12.50;99.90
13203;DHT22;6666;51.626;7.530;2024-03-02T11:41:01;12.60;99.90
13203;DHT22;6666;51.626;7.530;2024-03-02T11:43:30;12.70;99.90
13203;DHT22;6666;51.626;7.530;2024-03-02T11:46:00;12.80;99.90
13203;DHT22;6666;51.626;7.530;2024-03-02T11:48:35;12.80;99.90
13203;DHT22;6666;51.626;7.530;2024-03-02T11:51:04;12.80;99.90
13203;DHT22;6666;51.626;7.530;2024-03-02T11:53:33;12.90;99.90
13203;DHT22;6666;51.626;7.530;2024-03-02T11:56:03;13.00;99.90
13203;DHT22;6666;51.626;7.530;2024-03-02T11:58:35;12.90;99.90
13203;DHT22;6666;51.626;7.530;2024-03-02T12:01:04;12.90;99.90
13203;DHT22;6666;51.626;7.530;2024-03-02T12:03:34;13.00;99.90
13203;DHT22;6666;51.626;7.530;2024-03-02T12:06:03;13.10;99.90
13203;DHT22;6666;51.626;7.530;2024-03-02T12:08:32;13.20;99.90
13203;DHT22;6666;51.626;7.530;2024-03-02T12:11:02;13.20;99.90
13203;DHT22;6666;51.626;7.530;2024-03-02T12:13:31;13.10;99.90
13203;DHT22;6666;51.626;7.530;2024-03-02T12:16:00;13.20;99.90
13203;DHT22;6666;51.626;7.530;2024-03-02T12:18:28;13.30;99.90
13203;DHT22;6666;51.626;7.530;2024-03-02T12:20:58;13.30;99.90
13203;DHT22;6666;51.626;7.530;2024-03-02T12:23:27;13.10;99.90
13203;DHT22;6666;51.626;7.530;2024-03-02T12:25:55;13.10;99.90
13203;DHT22;6666;51.626;7.530;2024-03-02T12:28:23;13.00;99.90
13203;DHT22;6666;51.626;7.530;2024-03-02T12:30:52;13.20;99.90
13203;DHT22;6666;51.626;7.530;2024-03-02T12:33:20;13.30;99.90
13203;DHT22;6666;51.626;7.530;2024-03-02T12:35:49;13.30;99.90
13203;DHT22;6666;51.626;7.530;2024-03-02T12:38:19;13.30;99.90
13203;DHT22;6666;51.626;7.530;2024-03-02T12:40:48;13.50;99.90
13203;DHT22;6666;51.626;7.530;2024-03-02T12:43:17;13.60;99.90
13203;DHT22;6666;51.626;7.530;2024-03-02T12:45:45;13.70;99.90
13203;DHT22;6666;51.626;7.530;2024-03-02T12:48:13;13.60;99.90
13203;DHT22;6666;51.626;7.530;2024-03-02T12:50:42;13.50;99.90
13203;DHT22;6666;51.626;7.530;2024-03-02T12:53:14;13.50;99.90
13203;DHT22;6666;51.626;7.530;2024-03-02T12:55:45;13.70;99.90
13203;DHT22;6666;51.626;7.530;2024-03-02T12:58:18;13.90;99.00
13203;DHT22;6666;51.626;7.530;2024-03-02T13:00:46;14.00;96.20
13203;DHT22;6666;51.626;7.530;2024-03-02T13:03:14;14.00;97.10
13203;DHT22;6666;51.626;7.530;2024-03-02T13:05:48;14.00;97.80
13203;DHT22;6666;51.626;7.530;2024-03-02T13:08:17;13.80;97.20
13203;DHT22;6666;51.626;7.530;2024-03-02T13:10:47;13.80;99.90
13203;DHT22;6666;51.626;7.530;2024-03-02T13:16:04;13.70;99.90
13203;DHT22;6666;51.626;7.530;2024-03-02T13:18:38;13.60;99.60
13203;DHT22;6666;51.626;7.530;2024-03-02T13:21:07;13.50;99.90
13203;DHT22;6666;51.626;7.530;2024-03-02T13:23:35;13.50;99.90
13203;DHT22;6666;51.626;7.530;2024-03-02T13:26:05;13.50;99.90
13203;DHT22;6666;51.626;7.530;2024-03-02T13:28:57;13.60;99.90
13203;DHT22;6666;51.626;7.530;2024-03-02T13:31:25;13.70;99.10
13203;DHT22;6666;51.626;7.530;2024-03-02T13:33:53;13.70;99.90
13203;DHT22;6666;51.626;7.530;2024-03-02T13:36:21;13.60;99.90
13203;DHT22;6666;51.626;7.530;2024-03-02T13:38:51;13.60;99.90
13203;DHT22;6666;51.626;7.530;2024-03-02T13:41:20;13.60;97.00
13203;DHT22;6666;51.626;7.530;2024-03-02T13:43:48;13.60;99.90
13203;DHT22;6666;51.626;7.530;2024-03-02T13:46:20;13.60;97.70
13203;DHT22;6666;51.626;7.530;2024-03-02T13:48:48;13.60;97.60
13203;DHT22;6666;51.626;7.530;2024-03-02T13:51:18;13.60;99.50
13203;DHT22;6666;51.626;7.530;2024-03-02T13:53:46;13.60;99.90
13203;DHT22;6666;51.626;7.530;2024-03-02T13:56:14;13.70;99.40
13203;DHT22;6666;51.626;7.530;2024-03-02T13:58:44;13.70;99.90
13203;DHT22;6666;51.626;7.530;2024-03-02T14:01:12;13.60;99.90
13203;DHT22;6666;51.626;7.530;2024-03-02T14:03:41;13.60;99.90
13203;DHT22;6666;51.626;7.530;2024-03-02T14:06:09;13.60;98.70
13203;DHT22;6666;51.626;7.530;2024-03-02T14:08:37;13.60;98.70
13203;DHT22;6666;51.626;7.530;2024-03-02T14:11:06;13.60;99.90
13203;DHT22;6666;51.626;7.530;2024-03-02T14:13:36;13.50;99.90
13203;DHT22;6666;51.626;7.530;2024-03-02T14:16:06;13.50;99.90
13203;DHT22;6666;51.626;7.530;2024-03-02T14:18:36;13.50;97.10
13203;DHT22;6666;51.626;7.530;2024-03-02T14:21:29;13.50;99.90
13203;DHT22;6666;51.626;7.530;2024-03-02T14:23:57;13.40;99.70
13203;DHT22;6666;51.626;7.530;2024-03-02T14:26:25;13.40;99.50
13203;DHT22;6666;51.626;7.530;2024-03-02T14:28:54;13.50;99.70
13203;DHT22;6666;51.626;7.530;2024-03-02T14:31:24;13.50;99.50
13203;DHT22;6666;51.626;7.530;2024-03-02T14:33:53;13.60;98.70
13203;DHT22;6666;51.626;7.530;2024-03-02T14:36:21;13.50;99.20
13203;DHT22;6666;51.626;7.530;2024-03-02T14:38:49;13.50;97.90
13203;DHT22;6666;51.626;7.530;2024-03-02T14:41:17;13.50;99.20
13203;DHT22;6666;51.626;7.530;2024-03-02T14:43:45;13.50;97.90
13203;DHT22;6666;51.626;7.530;2024-03-02T14:46:14;13.50;98.90
13203;DHT22;6666;51.626;7.530;2024-03-02T14:48:46;13.50;98.90
13203;DHT22;6666;51.626;7.530;2024-03-02T14:51:14;13.40;97.90
13203;DHT22;6666;51.626;7.530;2024-03-02T14:53:42;13.50;96.00
13203;DHT22;6666;51.626;7.530;2024-03-02T14:56:10;13.50;95.40
13203;DHT22;6666;51.626;7.530;2024-03-02T14:58:40;13.60;98.90
13203;DHT22;6666;51.626;7.530;2024-03-02T15:01:10;13.60;98.70
13203;DHT22;6666;51.626;7.530;2024-03-02T15:03:38;13.60;98.40
13203;DHT22;6666;51.626;7.530;2024-03-02T15:06:08;13.60;97.50
13203;DHT22;6666;51.626;7.530;2024-03-02T15:08:39;13.60;95.50
13203;DHT22;6666;51.626;7.530;2024-03-02T15:11:08;13.70;96.80
13203;DHT22;6666;51.626;7.530;2024-03-02T15:13:38;13.70;96.30
13203;DHT22;6666;51.626;7.530;2024-03-02T15:16:07;13.60;97.00
13203;DHT22;6666;51.626;7.530;2024-03-02T15:18:38;13.60;98.00
13203;DHT22;6666;51.626;7.530;2024-03-02T15:21:07;13.50;96.40
13203;DHT22;6666;51.626;7.530;2024-03-02T15:23:35;13.60;97.30
13203;DHT22;6666;51.626;7.530;2024-03-02T15:26:04;13.60;95.60
13203;DHT22;6666;51.626;7.530;2024-03-02T15:28:32;13.60;97.40
13203;DHT22;6666;51.626;7.530;2024-03-02T15:31:00;13.60;97.40
13203;DHT22;6666;51.626;7.530;2024-03-02T15:33:30;13.60;97.80
13203;DHT22;6666;51.626;7.530;2024-03-02T15:35:59;13.50;97.90
13203;DHT22;6666;51.626;7.530;2024-03-02T15:38:29;13.50;99.90
13203;DHT22;6666;51.626;7.530;2024-03-02T15:41:02;13.50;97.40
13203;DHT22;6666;51.626;7.530;2024-03-02T15:43:30;13.50;97.10
13203;DHT22;6666;51.626;7.530;2024-03-02T15:45:59;13.40;98.70
13203;DHT22;6666;51.626;7.530;2024-03-02T15:48:27;13.30;98.30
13203;DHT22;6666;51.626;7.530;2024-03-02T15:50:56;13.40;97.60
13203;DHT22;6666;51.626;7.530;2024-03-02T15:53:26;13.40;98.70
13203;DHT22;6666;51.626;7.530;2024-03-02T15:55:56;13.40;98.00
13203;DHT22;6666;51.626;7.530;2024-03-02T15:58:24;13.40;98.30
13203;DHT22;6666;51.626;7.530;2024-03-02T16:00:52;13.30;99.60
13203;DHT22;6666;51.626;7.530;2024-03-02T16:03:20;13.30;97.80
13203;DHT22;6666;51.626;7.530;2024-03-02T16:05:48;13.30;94.70
13203;DHT22;6666;51.626;7.530;2024-03-02T16:08:16;13.30;96.70
13203;DHT22;6666;51.626;7.530;2024-03-02T16:10:47;13.20;97.00
13203;DHT22;6666;51.626;7.530;2024-03-02T16:13:17;13.20;98.20
13203;DHT22;6666;51.626;7.530;2024-03-02T16:15:45;13.10;99.10